SWA1522 KSJC-KONT
Flight info
| Callsign | SWA1522 |
|---|---|
| Flight time | N/A |
| Altitude | 33000 |
| Route | SPTNS1 JFREE LOSHN EHF ZIGGY8 |
| Aircraft | B732/M-SDFGHRWY/S |
Departure
| Time | N/A |
|---|---|
| Airport | Norman Y. Mineta San Jose International Airport (KSJC) |
Arrival
| Time | 2026-05-05 05:55 |
|---|---|
| Airport | Ontario International Airport (KONT) |
| Time | Latitude | Longitude | Altitude | Speed | Heading |
|---|---|---|---|---|---|
| 2026-05-05 05:50 | 34.06293 | -117.35055 | 4965 ft | 230 kts | 240° |
| 2026-05-05 05:50 | 34.05715 | -117.36832 | 4483 ft | 232 kts | 260° |
| 2026-05-05 05:51 | 34.05518 | -117.38734 | 4141 ft | 221 kts | 267° |
| 2026-05-05 05:51 | 34.05471 | -117.40512 | 3828 ft | 201 kts | 270° |
| 2026-05-05 05:51 | 34.05466 | -117.42132 | 3484 ft | 187 kts | 271° |
| 2026-05-05 05:51 | 34.05464 | -117.43583 | 3398 ft | 154 kts | 271° |
| 2026-05-05 05:52 | 34.05465 | -117.44795 | 3143 ft | 140 kts | 271° |
| 2026-05-05 05:52 | 34.05474 | -117.45925 | 2782 ft | 129 kts | 271° |
| 2026-05-05 05:52 | 34.05494 | -117.46990 | 2676 ft | 129 kts | 271° |
| 2026-05-05 05:52 | 34.05507 | -117.48100 | 2659 ft | 135 kts | 270° |
| 2026-05-05 05:53 | 34.05515 | -117.49258 | 2430 ft | 139 kts | 270° |
| 2026-05-05 05:53 | 34.05518 | -117.50398 | 2197 ft | 130 kts | 269° |
| 2026-05-05 05:53 | 34.05515 | -117.51501 | 2067 ft | 130 kts | 269° |
| 2026-05-05 05:53 | 34.05497 | -117.52593 | 1910 ft | 132 kts | 269° |
| 2026-05-05 05:54 | 34.05499 | -117.53709 | 1742 ft | 133 kts | 268° |
| 2026-05-05 05:54 | 34.05465 | -117.54825 | 1528 ft | 135 kts | 269° |
| 2026-05-05 05:54 | 34.05495 | -117.55966 | 1332 ft | 133 kts | 269° |
| 2026-05-05 05:54 | 34.05491 | -117.57066 | 1147 ft | 128 kts | 268° |
| 2026-05-05 05:55 | 34.05495 | -117.58117 | 988 ft | 125 kts | 269° |
| 2026-05-05 05:55 | 34.05497 | -117.59139 | 932 ft | 107 kts | 272° |
| 2026-05-05 05:55 | 34.05498 | -117.59832 | 929 ft | 57 kts | 269° |
| 2026-05-05 05:55 | 34.05495 | -117.60203 | 930 ft | 20 kts | 269° |
| 2026-05-05 05:56 | 34.05515 | -117.60390 | 932 ft | 22 kts | 286° |
| 2026-05-05 05:56 | 34.05574 | -117.60549 | 934 ft | 19 kts | 305° |
| 2026-05-05 05:56 | 34.05664 | -117.60654 | 937 ft | 16 kts | 353° |
| 2026-05-05 05:56 | 34.05698 | -117.60551 | 937 ft | 15 kts | 93° |
| 2026-05-05 05:57 | 34.05692 | -117.60416 | 935 ft | 16 kts | 92° |
| 2026-05-05 05:57 | 34.05714 | -117.60292 | 935 ft | 15 kts | 15° |
| 2026-05-05 05:57 | 34.05791 | -117.60239 | 936 ft | 13 kts | 72° |
| 2026-05-05 05:57 | 34.05825 | -117.59632 | 936 ft | 10 kts | 69° |
| 2026-05-05 05:58 | 34.05868 | -117.59583 | 938 ft | 7 kts | 9° |
| 2026-05-05 05:58 | 34.05918 | -117.59579 | 939 ft | 7 kts | 1° |
| 2026-05-05 05:58 | 34.05974 | -117.59579 | 940 ft | 8 kts | 0° |
| 2026-05-05 05:58 | 34.05986 | -117.59579 | 940 ft | 0 kts | 0° |